createdAt,value
2022-12-26T00:01:08.225Z,94.30
2022-12-26T00:03:37.345Z,102.47
2022-12-26T00:06:11.400Z,96.20
2022-12-26T00:08:38.795Z,93.85
2022-12-26T00:11:06.255Z,97.90
2022-12-26T00:13:38.384Z,101.32
2022-12-26T00:16:14.800Z,91.63
2022-12-26T00:18:43.132Z,95.45
2022-12-26T00:21:12.235Z,99.88
2022-12-26T00:23:40.411Z,92.97
2022-12-26T00:26:19.704Z,97.10
2022-12-26T00:28:50.378Z,94.47
2022-12-26T00:31:24.906Z,95.43
2022-12-26T00:33:52.878Z,103.10
2022-12-26T00:36:26.018Z,100.55
2022-12-26T00:38:53.512Z,99.80
2022-12-26T00:41:21.528Z,100.80
2022-12-26T00:43:49.814Z,96.07
2022-12-26T00:46:18.563Z,102.45
2022-12-26T00:48:46.778Z,103.95
2022-12-26T00:51:15.125Z,112.72
2022-12-26T00:53:43.065Z,111.68
2022-12-26T00:56:10.912Z,124.18
2022-12-26T00:58:38.951Z,113.35
2022-12-26T01:01:15.763Z,113.55
2022-12-26T01:03:45.616Z,106.50
2022-12-26T01:06:14.233Z,112.00
2022-12-26T01:08:41.992Z,113.57
2022-12-26T01:11:12.619Z,110.75
2022-12-26T01:13:40.078Z,114.72
2022-12-26T01:16:08.264Z,112.50
2022-12-26T01:18:36.500Z,110.65
2022-12-26T01:21:11.906Z,114.13
2022-12-26T01:23:39.286Z,114.88
2022-12-26T01:26:18.063Z,118.47
2022-12-26T01:28:52.207Z,112.63
2022-12-26T01:31:21.545Z,110.03
2022-12-26T01:33:49.443Z,120.95
2022-12-26T01:36:17.656Z,109.00
2022-12-26T01:38:45.971Z,120.72
2022-12-26T01:41:20.499Z,120.15
2022-12-26T01:43:49.824Z,120.25
2022-12-26T01:46:22.634Z,113.88
2022-12-26T01:48:51.584Z,119.88
2022-12-26T01:51:22.132Z,105.43
2022-12-26T01:53:54.063Z,120.15
2022-12-26T01:56:32.472Z,128.77
2022-12-26T01:59:09.629Z,110.50
2022-12-26T02:01:39.563Z,110.43
2022-12-26T02:04:29.563Z,117.32
2022-12-26T02:06:57.301Z,120.28
2022-12-26T02:09:24.866Z,120.72
2022-12-26T02:12:37.662Z,129.18
2022-12-26T02:14:50.512Z,114.18
2022-12-26T02:17:18.972Z,105.20
2022-12-26T02:20:10.850Z,114.60
2022-12-26T02:22:47.081Z,114.82
2022-12-26T02:25:30.687Z,117.25
2022-12-26T02:28:31.593Z,125.30
2022-12-26T02:31:19.229Z,112.47
2022-12-26T02:34:22.004Z,124.47
2022-12-26T02:39:44.238Z,121.72
2022-12-26T02:42:19.153Z,120.57
2022-12-26T02:45:26.445Z,105.43
2022-12-26T02:47:53.791Z,116.60
2022-12-26T02:51:16.412Z,114.13
2022-12-26T02:54:08.488Z,110.70
2022-12-26T02:57:00.840Z,113.97
2022-12-26T03:00:01.144Z,109.97
2022-12-26T03:03:06.741Z,111.68
2022-12-26T03:05:57.974Z,114.68
2022-12-26T03:08:50.262Z,118.70
2022-12-26T03:11:36.703Z,115.97
2022-12-26T03:14:12.824Z,101.40
2022-12-26T03:16:59.596Z,112.50
2022-12-26T03:19:29.663Z,114.72
2022-12-26T03:22:00.376Z,114.38
2022-12-26T03:24:48.339Z,118.60
2022-12-26T03:27:15.866Z,119.40
2022-12-26T03:30:01.854Z,112.10
2022-12-26T03:32:42.825Z,106.68
2022-12-26T03:35:15.255Z,111.22
2022-12-26T03:38:11.934Z,122.65
2022-12-26T03:41:09.831Z,116.60
2022-12-26T03:44:08.132Z,123.18
2022-12-26T03:47:12.780Z,119.45
2022-12-26T03:50:13.936Z,114.47
2022-12-26T03:53:36.036Z,121.28
2022-12-26T03:56:43.391Z,130.90
2022-12-26T03:59:41.320Z,122.20
2022-12-26T04:02:30.775Z,111.93
2022-12-26T04:05:20.141Z,121.57
2022-12-26T04:08:18.480Z,128.98
2022-12-26T04:11:16.576Z,134.02
2022-12-26T04:14:25.770Z,135.57
2022-12-26T04:17:30.898Z,123.03
2022-12-26T04:20:15.759Z,129.90
2022-12-26T04:23:11.003Z,133.48
2022-12-26T04:26:16.276Z,136.25
2022-12-26T04:29:02.167Z,128.30
2022-12-26T04:32:29.362Z,127.97
2022-12-26T04:35:24.532Z,129.20
2022-12-26T04:38:13.895Z,125.20
2022-12-26T04:41:05.150Z,134.82
2022-12-26T04:43:52.762Z,138.25
2022-12-26T04:46:22.777Z,148.15
2022-12-26T04:49:10.812Z,144.10
2022-12-26T04:51:38.320Z,136.63
2022-12-26T04:54:06.694Z,140.93
2022-12-26T04:56:34.367Z,129.85
2022-12-26T04:59:01.845Z,136.10
2022-12-26T05:01:47.973Z,146.15
2022-12-26T05:04:35.794Z,160.80
2022-12-26T05:07:24.220Z,139.10
2022-12-26T05:09:54.986Z,139.45
2022-12-26T05:12:23.215Z,146.68
2022-12-26T05:14:50.611Z,148.35
2022-12-26T05:17:37.062Z,147.95
2022-12-26T05:20:23.364Z,144.32
2022-12-26T05:23:10.671Z,158.43
2022-12-26T05:26:00.390Z,147.50
2022-12-26T05:28:43.023Z,138.30
2022-12-26T05:31:12.674Z,137.30
2022-12-26T05:33:59.421Z,157.60
2022-12-26T05:36:49.864Z,151.52
2022-12-26T05:39:17.388Z,135.27
2022-12-26T05:41:45.056Z,136.40
2022-12-26T05:44:12.710Z,122.00
2022-12-26T05:46:42.479Z,134.90
2022-12-26T05:49:10.556Z,128.85
2022-12-26T05:51:38.019Z,126.55
2022-12-26T05:54:05.454Z,129.95
2022-12-26T05:56:34.222Z,129.05
2022-12-26T05:59:01.898Z,130.02
2022-12-26T06:01:30.579Z,145.07
2022-12-26T06:03:59.990Z,153.52
2022-12-26T06:06:28.253Z,155.48
2022-12-26T06:08:57.134Z,161.02
2022-12-26T06:11:26.531Z,154.45
2022-12-26T06:13:55.087Z,154.18
2022-12-26T06:16:23.088Z,157.50
2022-12-26T06:18:50.655Z,161.32
2022-12-26T06:21:19.669Z,181.68
2022-12-26T06:23:48.080Z,194.50
2022-12-26T06:26:16.245Z,181.48
2022-12-26T06:28:44.422Z,187.70
2022-12-26T06:31:16.365Z,173.60
2022-12-26T06:33:44.533Z,168.40
2022-12-26T06:36:15.908Z,187.90
2022-12-26T06:38:43.891Z,185.60
2022-12-26T06:41:14.330Z,196.00
2022-12-26T06:43:42.603Z,191.73
2022-12-26T06:46:13.664Z,188.73
2022-12-26T06:48:41.378Z,194.25
2022-12-26T06:51:21.065Z,176.50
2022-12-26T06:53:49.727Z,191.00
2022-12-26T06:56:23.215Z,190.68
2022-12-26T06:59:04.841Z,167.20
2022-12-26T07:01:35.064Z,210.32
2022-12-26T07:04:04.354Z,217.57
2022-12-26T07:06:33.187Z,201.38
2022-12-26T07:09:03.562Z,207.52
2022-12-26T07:11:34.932Z,193.98
2022-12-26T07:14:02.964Z,190.33
2022-12-26T07:16:30.559Z,199.35
2022-12-26T07:19:00.716Z,208.82
2022-12-26T07:21:29.850Z,212.63
2022-12-26T07:23:58.798Z,220.27
2022-12-26T07:26:26.534Z,230.70
2022-12-26T07:28:58.197Z,220.05
2022-12-26T08:16:20.663Z,233.52
2022-12-26T08:19:40.554Z,234.98
2022-12-26T08:22:20.689Z,199.02
2022-12-26T08:29:20.369Z,212.48
2022-12-26T08:40:44.479Z,205.43
2022-12-26T09:32:24.125Z,150.60
2022-12-26T10:17:05.599Z,155.75
2022-12-26T10:28:01.980Z,137.52
2022-12-26T11:05:26.751Z,110.97
2022-12-26T11:15:21.143Z,122.13
2022-12-26T11:30:30.919Z,106.88
2022-12-26T11:33:42.880Z,101.95
2022-12-26T11:37:12.072Z,112.18
2022-12-26T11:39:41.970Z,105.60
2022-12-26T11:42:15.956Z,115.40
2022-12-26T11:50:06.684Z,111.47
2022-12-26T11:57:42.247Z,101.07
2022-12-26T12:00:30.589Z,108.93
2022-12-26T12:03:19.902Z,95.80
2022-12-26T13:42:46.839Z,111.85
2022-12-26T13:45:47.546Z,127.90
2022-12-26T13:48:17.641Z,107.32
2022-12-26T13:51:03.166Z,108.10
2022-12-26T13:53:33.533Z,107.07
2022-12-26T13:56:14.960Z,112.30
2022-12-26T13:58:42.319Z,107.03
2022-12-26T14:01:31.575Z,109.30
2022-12-26T14:04:26.613Z,114.85
2022-12-26T14:07:00.048Z,104.20
2022-12-26T14:09:27.538Z,105.80
2022-12-26T14:12:03.785Z,108.03
2022-12-26T14:14:58.269Z,98.13
2022-12-26T14:17:44.315Z,104.82
2022-12-26T14:20:20.917Z,108.28
2022-12-26T14:23:10.204Z,109.10
2022-12-26T14:26:19.207Z,106.82
2022-12-26T14:29:01.475Z,101.28
2022-12-26T14:31:48.278Z,114.10
2022-12-26T14:34:25.459Z,113.25
2022-12-26T14:37:10.724Z,110.65
2022-12-26T14:39:55.377Z,115.22
2022-12-26T14:42:43.556Z,114.47
2022-12-26T14:45:40.479Z,109.70
2022-12-26T14:48:16.972Z,126.22
2022-12-26T14:50:47.482Z,108.68
2022-12-26T14:53:17.905Z,121.30
2022-12-26T14:56:10.460Z,117.57
2022-12-26T15:01:13.270Z,110.38
2022-12-26T15:03:59.489Z,118.78
2022-12-26T15:06:58.317Z,109.38
2022-12-26T15:10:10.448Z,107.90
2022-12-26T15:13:10.533Z,80.00
2022-12-26T15:15:46.974Z,121.32
2022-12-26T15:18:23.423Z,125.10
2022-12-26T15:21:23.108Z,123.82
2022-12-26T15:23:59.751Z,118.50
2022-12-26T15:26:48.736Z,119.30
2022-12-26T15:29:34.934Z,130.18
2022-12-26T15:32:08.532Z,128.02
2022-12-26T15:34:47.682Z,117.05
2022-12-26T15:37:40.904Z,122.38
2022-12-26T15:40:25.109Z,124.55
2022-12-26T15:43:04.517Z,119.90
2022-12-26T15:46:08.651Z,125.07
2022-12-26T15:49:11.601Z,122.07
2022-12-26T15:52:08.701Z,125.55
2022-12-26T15:54:53.470Z,130.38
2022-12-26T15:57:44.732Z,138.85
2022-12-26T16:00:23.291Z,145.20
2022-12-26T16:03:24.661Z,146.90
2022-12-26T16:05:54.458Z,128.23
2022-12-26T16:08:36.554Z,130.85
2022-12-26T16:11:19.363Z,148.85
2022-12-26T16:14:02.965Z,148.23
2022-12-26T16:16:37.204Z,134.57
2022-12-26T16:19:22.017Z,129.18
2022-12-26T16:22:13.868Z,135.88
2022-12-26T16:24:42.955Z,129.07
2022-12-26T16:27:16.400Z,133.43
2022-12-26T16:29:47.690Z,130.95
2022-12-26T16:32:27.951Z,145.73
2022-12-26T16:34:56.714Z,127.75
2022-12-26T16:37:25.838Z,127.63
2022-12-26T16:40:11.839Z,139.75
2022-12-26T16:42:43.158Z,124.47
2022-12-26T16:45:18.841Z,132.53
2022-12-26T16:47:47.199Z,129.27
2022-12-26T16:50:24.065Z,142.30
2022-12-26T16:53:10.199Z,134.05
2022-12-26T16:55:46.563Z,136.98
2022-12-26T16:58:25.220Z,135.73
2022-12-26T17:01:03.467Z,136.15
2022-12-26T17:03:42.844Z,137.77
2022-12-26T17:06:15.465Z,133.45
2022-12-26T17:08:47.396Z,150.13
2022-12-26T17:11:15.231Z,143.55
2022-12-26T17:13:51.662Z,137.10
2022-12-26T17:16:26.496Z,143.68
2022-12-26T17:18:55.880Z,158.02
2022-12-26T17:21:31.821Z,169.82
2022-12-26T17:24:26.204Z,150.98
2022-12-26T17:27:19.392Z,172.55
2022-12-26T17:29:53.220Z,192.23
2022-12-26T17:32:45.817Z,160.32
2022-12-26T17:35:25.494Z,155.02
2022-12-26T17:38:00.682Z,149.98
2022-12-26T17:40:33.319Z,150.75
2022-12-26T17:43:08.218Z,154.60
2022-12-26T17:45:38.882Z,139.30
2022-12-26T17:48:11.272Z,144.75
2022-12-26T17:50:43.180Z,145.50
2022-12-26T17:53:22.782Z,137.35
2022-12-26T17:55:51.572Z,142.80
2022-12-26T17:58:20.592Z,139.40
2022-12-26T18:00:48.547Z,149.05
2022-12-26T18:03:16.178Z,145.82
2022-12-26T18:05:45.553Z,163.90
2022-12-26T18:08:35.392Z,170.75
2022-12-26T18:11:05.572Z,148.73
2022-12-26T18:13:32.971Z,155.05
2022-12-26T18:16:00.574Z,146.50
2022-12-26T18:18:43.130Z,141.32
2022-12-26T18:23:39.328Z,138.82
2022-12-26T18:26:28.440Z,153.98
2022-12-26T18:28:55.882Z,169.63
2022-12-26T18:31:23.373Z,176.10
2022-12-26T18:33:51.008Z,141.70
2022-12-26T18:36:19.389Z,151.95
2022-12-26T18:38:46.840Z,294.55
2022-12-26T18:41:19.623Z,252.02
2022-12-26T18:43:47.644Z,173.70
2022-12-26T18:46:20.696Z,171.27
2022-12-26T18:48:49.099Z,175.73
2022-12-26T18:51:16.919Z,183.77
2022-12-26T18:53:44.271Z,180.35
2022-12-26T18:56:20.438Z,190.30
2022-12-26T18:58:52.551Z,186.55
2022-12-26T19:01:23.203Z,172.63
2022-12-26T19:03:50.688Z,177.13
2022-12-26T19:06:27.535Z,152.90
2022-12-26T19:08:55.930Z,142.10
2022-12-26T19:11:23.389Z,156.55
2022-12-26T19:13:52.588Z,149.32
2022-12-26T19:16:23.024Z,152.90
2022-12-26T19:18:51.889Z,164.88
2022-12-26T19:21:19.300Z,175.20
2022-12-26T19:23:47.641Z,260.02
2022-12-26T19:26:17.603Z,217.82
2022-12-26T19:28:45.403Z,183.57
2022-12-26T19:31:15.015Z,159.38
2022-12-26T19:33:42.580Z,162.02
2022-12-26T19:36:10.677Z,152.43
2022-12-26T19:38:38.112Z,161.52
2022-12-26T19:41:12.483Z,149.02
2022-12-26T19:43:40.657Z,146.73
2022-12-26T19:46:11.346Z,166.95
2022-12-26T19:48:39.354Z,208.68
2022-12-26T19:51:12.174Z,226.95
2022-12-26T19:53:41.714Z,214.50
2022-12-26T19:56:13.791Z,211.80
2022-12-26T19:58:41.464Z,212.75
2022-12-26T20:01:14.911Z,203.57
2022-12-26T20:03:42.389Z,170.02
2022-12-26T20:06:16.409Z,154.90
2022-12-26T20:08:45.111Z,155.50
2022-12-26T20:11:21.931Z,159.45
2022-12-26T20:13:50.293Z,161.88
2022-12-26T20:17:03.364Z,160.18
2022-12-26T20:19:11.968Z,152.68
2022-12-26T20:21:39.574Z,153.27
2022-12-26T20:24:07.149Z,159.18
2022-12-26T20:26:34.532Z,157.73
2022-12-26T20:29:02.451Z,146.88
2022-12-26T20:31:31.939Z,159.73
2022-12-26T20:33:59.912Z,149.57
2022-12-26T20:36:33.678Z,153.73
2022-12-26T20:39:04.527Z,152.63
2022-12-26T20:41:32.047Z,157.20
2022-12-26T20:43:59.567Z,154.48
2022-12-26T20:46:29.700Z,148.20
2022-12-26T20:48:57.123Z,152.70
2022-12-26T20:51:30.200Z,145.57
2022-12-26T20:54:03.087Z,145.57
2022-12-26T20:56:30.585Z,162.98
2022-12-26T20:58:59.683Z,151.60
2022-12-26T21:01:28.378Z,172.20
2022-12-26T21:03:57.289Z,166.10
2022-12-26T21:06:34.126Z,161.73
2022-12-26T21:09:01.773Z,142.82
2022-12-26T21:11:34.574Z,162.90
2022-12-26T21:14:04.916Z,157.07
2022-12-26T21:16:39.115Z,153.98
2022-12-26T21:19:12.545Z,146.30
2022-12-26T21:21:44.294Z,157.65
2022-12-26T21:24:18.267Z,159.30
2022-12-26T21:26:46.243Z,153.90
2022-12-26T21:29:19.795Z,153.57
2022-12-26T21:31:48.034Z,150.32
2022-12-26T21:34:17.435Z,147.90
2022-12-26T21:37:05.756Z,157.20
2022-12-26T21:39:34.909Z,162.52
2022-12-26T21:42:03.273Z,153.07
2022-12-26T21:44:30.948Z,159.70
2022-12-26T21:46:58.407Z,152.30
2022-12-26T21:49:25.810Z,149.90
2022-12-26T21:51:53.206Z,146.07
2022-12-26T21:54:44.816Z,162.93
2022-12-26T21:57:16.297Z,161.07
2022-12-26T21:59:59.341Z,175.93
2022-12-26T22:02:50.843Z,167.38
2022-12-26T22:05:21.362Z,199.32
2022-12-26T22:07:53.261Z,223.05
2022-12-26T22:10:39.370Z,202.80
2022-12-26T22:13:07.169Z,220.23
2022-12-26T22:15:53.277Z,182.93
2022-12-26T22:18:20.762Z,165.27
2022-12-26T22:20:48.119Z,162.90
2022-12-26T22:23:15.549Z,181.27
2022-12-26T22:25:42.895Z,192.10
2022-12-26T22:28:10.777Z,192.90
2022-12-26T22:30:38.120Z,172.45
2022-12-26T22:33:05.563Z,170.30
2022-12-26T22:35:33.392Z,154.73
2022-12-26T22:38:00.797Z,161.30
2022-12-26T22:40:28.152Z,160.48
2022-12-26T22:42:55.532Z,148.38
2022-12-26T22:45:22.915Z,164.98
2022-12-26T22:47:50.296Z,179.07
2022-12-26T22:50:17.808Z,162.32
2022-12-26T22:52:45.272Z,151.93
2022-12-26T22:55:13.700Z,159.02
2022-12-26T22:57:42.132Z,156.77
2022-12-26T23:00:13.185Z,149.98
2022-12-26T23:02:40.771Z,149.00
2022-12-26T23:05:11.476Z,157.40
2022-12-26T23:07:39.875Z,159.00
2022-12-26T23:10:08.814Z,160.82
2022-12-26T23:12:45.648Z,163.57
2022-12-26T23:15:19.537Z,183.27
2022-12-26T23:18:15.717Z,186.95
2022-12-26T23:21:01.566Z,166.23
2022-12-26T23:23:29.165Z,153.98
2022-12-26T23:26:01.077Z,143.98
2022-12-26T23:28:47.073Z,145.18
2022-12-26T23:31:15.240Z,138.50
2022-12-26T23:33:42.608Z,136.00
2022-12-26T23:36:09.963Z,146.40
2022-12-26T23:38:37.388Z,146.15
2022-12-26T23:41:04.859Z,145.52
2022-12-26T23:43:33.614Z,151.00
2022-12-26T23:46:01.182Z,153.85
2022-12-26T23:48:28.610Z,159.57
2022-12-26T23:51:04.162Z,160.63
2022-12-26T23:53:31.618Z,191.90
2022-12-26T23:55:59.586Z,168.55
2022-12-26T23:58:27.208Z,168.45
